Troye d'Ariège ULM

FR-0355 · Ariège, Occitanie, 法国

罗盘
风向 的 风向 270° Troye d'Ariège ULM 11/29
风: 2 kt, 1 beaufort

2 kt

1 kt
改变
0 1.000 2.000 3.000 4.000 5.000
FEW 2.300 ft
OVC 4.700 ft
METAR LFCK 031830Z AUTO 27002KT 9999 FEW023 OVC047 06/04 Q1008 TEMPO BKN013

METAR Troye d'Ariège ULM - FR-0355

Troye d'Ariège ULM是,法国中的小机场。 该机场有一条跑道: 11/29. 该领域的国际民航组织标志是FR-0355.

这份报告是针对2022年12月3日 19:30, 当地时间在Castres-Mazamet Airport进行的。

机场观察

风向为270°,速度为2 kt。

可见度为10 km 或者更多。

有几云在2.300 ft的高度 和 乌云密布在4.700 ft的高度。 破损或更高的上限为4.700 ft。

温度为6 °C,阵风为5 °C。 露点为4 °C,相对湿度为87%。 海平面上的气压为1008 hPa (QNH)。

发展趋势

  • 暂时的

    可变方向的风很小或没有。 碎云在1.300 ft的高度.

白天

今天,太阳从08:06升起,在17:18降落。 这适用于Troye d'Ariège ULM,世界夏令时可能有所不同。 当地时间与世界标准时间之间的时差为+1 小时。 当前,没有夏令时有效。

公司介绍

我们没有关于这个机场的公司信息。

体会

到Vliegles.nl去找飞行课程,跳伞和其他飞行体验。 浏览页面,了解Troye d'Ariège ULM附近所有可用的活动。 你也可以使用搜索功能来寻找你所在地附近的特定飞行课程、跳伞或其他飞行体验。

跑道

Id 标题 侧风 逆风 侧风 %
11/29 110°-290° 2 kt 34 %

逆风成分最大的方向会被突出显示,并用于横风计算。 这并不一定意味着这个方向在使用。

乌云

2.300 ft FEW 几云
4.700 ft OVC 乌云密布
1.300 ft BKN 暂时的 碎云

温度 & 天气

温度 6 °C
露点 4 °C
相对湿度 87%
风寒 5 °C
Kp-index 1 (0-9)

白天

日出
08:06 (12:05)
中午
12:40
日落
17:15

小工具

你想在你的网站上有一个关于Troye d'Ariège ULM的当前航空天气(METAR)的小部件吗?

显示HTML代码

我们和第三方通过cookies跟踪您在我们网站上的互联网行为。如果你继续,我们认为你同意我们的饼干政策